sensor_id;sensor_type;location;lat;lon;timestamp;P1;durP1;ratioP1;P2;durP2;ratioP2
21527;SDS011;10925;49.102;-0.370;2023-03-24T00:00:45;5.43;;;1.27;;
21527;SDS011;10925;49.102;-0.370;2023-03-24T00:03:12;3.72;;;1.40;;
21527;SDS011;10925;49.102;-0.370;2023-03-24T00:05:42;8.82;;;1.50;;
21527;SDS011;10925;49.102;-0.370;2023-03-24T00:08:08;10.80;;;1.45;;
21527;SDS011;10925;49.102;-0.370;2023-03-24T00:10:35;7.25;;;1.50;;
21527;SDS011;10925;49.102;-0.370;2023-03-24T00:13:02;8.05;;;1.33;;
21527;SDS011;10925;49.102;-0.370;2023-03-24T00:15:29;10.15;;;1.92;;
21527;SDS011;10925;49.102;-0.370;2023-03-24T00:17:56;8.38;;;1.40;;
21527;SDS011;10925;49.102;-0.370;2023-03-24T00:20:23;10.50;;;1.30;;
21527;SDS011;10925;49.102;-0.370;2023-03-24T00:22:51;11.52;;;1.67;;
21527;SDS011;10925;49.102;-0.370;2023-03-24T00:25:24;7.40;;;1.58;;
21527;SDS011;10925;49.102;-0.370;2023-03-24T00:27:52;6.22;;;1.50;;
21527;SDS011;10925;49.102;-0.370;2023-03-24T00:30:18;6.75;;;2.42;;
21527;SDS011;10925;49.102;-0.370;2023-03-24T00:32:44;8.07;;;1.58;;
21527;SDS011;10925;49.102;-0.370;2023-03-24T00:35:12;10.30;;;1.52;;
21527;SDS011;10925;49.102;-0.370;2023-03-24T00:37:39;8.93;;;1.50;;
21527;SDS011;10925;49.102;-0.370;2023-03-24T00:40:09;10.57;;;1.83;;
21527;SDS011;10925;49.102;-0.370;2023-03-24T00:42:38;11.80;;;2.20;;
21527;SDS011;10925;49.102;-0.370;2023-03-24T00:45:07;13.18;;;1.65;;
21527;SDS011;10925;49.102;-0.370;2023-03-24T00:47:35;14.70;;;1.95;;
21527;SDS011;10925;49.102;-0.370;2023-03-24T00:50:04;11.05;;;1.80;;
21527;SDS011;10925;49.102;-0.370;2023-03-24T00:52:31;11.52;;;1.48;;
21527;SDS011;10925;49.102;-0.370;2023-03-24T00:55:01;9.07;;;2.15;;
21527;SDS011;10925;49.102;-0.370;2023-03-24T00:57:28;12.80;;;1.70;;
21527;SDS011;10925;49.102;-0.370;2023-03-24T00:59:55;8.23;;;1.48;;
21527;SDS011;10925;49.102;-0.370;2023-03-24T01:02:23;17.50;;;2.00;;
21527;SDS011;10925;49.102;-0.370;2023-03-24T01:04:51;11.23;;;1.92;;
21527;SDS011;10925;49.102;-0.370;2023-03-24T01:07:20;8.48;;;1.75;;
21527;SDS011;10925;49.102;-0.370;2023-03-24T01:09:47;9.60;;;1.98;;
21527;SDS011;10925;49.102;-0.370;2023-03-24T01:12:22;14.68;;;2.10;;
21527;SDS011;10925;49.102;-0.370;2023-03-24T01:14:50;17.63;;;2.15;;
21527;SDS011;10925;49.102;-0.370;2023-03-24T01:17:18;16.10;;;1.95;;
21527;SDS011;10925;49.102;-0.370;2023-03-24T01:19:47;12.63;;;2.13;;
21527;SDS011;10925;49.102;-0.370;2023-03-24T01:22:14;20.20;;;2.10;;
21527;SDS011;10925;49.102;-0.370;2023-03-24T01:24:41;11.20;;;1.67;;
21527;SDS011;10925;49.102;-0.370;2023-03-24T01:27:09;13.18;;;2.70;;
21527;SDS011;10925;49.102;-0.370;2023-03-24T01:29:36;13.07;;;1.90;;
21527;SDS011;10925;49.102;-0.370;2023-03-24T01:32:02;13.43;;;2.15;;
21527;SDS011;10925;49.102;-0.370;2023-03-24T01:34:29;9.40;;;2.13;;
21527;SDS011;10925;49.102;-0.370;2023-03-24T01:36:57;9.50;;;1.70;;
21527;SDS011;10925;49.102;-0.370;2023-03-24T01:39:24;15.80;;;2.50;;
21527;SDS011;10925;49.102;-0.370;2023-03-24T01:41:51;14.18;;;2.13;;
21527;SDS011;10925;49.102;-0.370;2023-03-24T01:44:32;10.48;;;2.85;;
21527;SDS011;10925;49.102;-0.370;2023-03-24T01:46:59;12.00;;;2.30;;
21527;SDS011;10925;49.102;-0.370;2023-03-24T01:49:28;13.13;;;2.00;;
21527;SDS011;10925;49.102;-0.370;2023-03-24T01:51:57;17.25;;;3.47;;
21527;SDS011;10925;49.102;-0.370;2023-03-24T01:54:33;16.55;;;2.60;;
21527;SDS011;10925;49.102;-0.370;2023-03-24T01:57:25;15.10;;;2.70;;
21527;SDS011;10925;49.102;-0.370;2023-03-24T01:59:53;16.05;;;2.15;;
21527;SDS011;10925;49.102;-0.370;2023-03-24T02:02:39;21.63;;;2.53;;
21527;SDS011;10925;49.102;-0.370;2023-03-24T02:05:07;20.58;;;3.58;;
21527;SDS011;10925;49.102;-0.370;2023-03-24T02:07:46;21.85;;;2.83;;
21527;SDS011;10925;49.102;-0.370;2023-03-24T02:10:13;22.67;;;2.55;;
21527;SDS011;10925;49.102;-0.370;2023-03-24T02:12:40;13.57;;;2.28;;
21527;SDS011;10925;49.102;-0.370;2023-03-24T02:15:06;19.40;;;2.65;;
21527;SDS011;10925;49.102;-0.370;2023-03-24T02:17:39;15.55;;;2.38;;
21527;SDS011;10925;49.102;-0.370;2023-03-24T02:35:35;21.83;;;2.58;;
21527;SDS011;10925;49.102;-0.370;2023-03-24T02:43:34;12.65;;;2.67;;
21527;SDS011;10925;49.102;-0.370;2023-03-24T02:51:10;14.35;;;2.60;;
21527;SDS011;10925;49.102;-0.370;2023-03-24T02:56:26;22.75;;;2.72;;
21527;SDS011;10925;49.102;-0.370;2023-03-24T02:59:06;23.05;;;2.67;;
21527;SDS011;10925;49.102;-0.370;2023-03-24T03:01:33;24.30;;;3.28;;
21527;SDS011;10925;49.102;-0.370;2023-03-24T03:04:06;24.25;;;2.83;;
21527;SDS011;10925;49.102;-0.370;2023-03-24T03:06:35;18.52;;;2.90;;
21527;SDS011;10925;49.102;-0.370;2023-03-24T03:09:03;30.48;;;3.28;;
21527;SDS011;10925;49.102;-0.370;2023-03-24T03:11:33;24.38;;;3.30;;
21527;SDS011;10925;49.102;-0.370;2023-03-24T03:14:04;23.65;;;3.17;;
21527;SDS011;10925;49.102;-0.370;2023-03-24T03:19:05;24.17;;;3.70;;
21527;SDS011;10925;49.102;-0.370;2023-03-24T03:21:35;29.58;;;3.63;;
21527;SDS011;10925;49.102;-0.370;2023-03-24T03:24:06;31.17;;;3.38;;
21527;SDS011;10925;49.102;-0.370;2023-03-24T03:26:33;24.45;;;2.85;;
21527;SDS011;10925;49.102;-0.370;2023-03-24T03:29:03;25.63;;;3.42;;
21527;SDS011;10925;49.102;-0.370;2023-03-24T03:31:34;25.02;;;3.10;;
21527;SDS011;10925;49.102;-0.370;2023-03-24T03:36:31;25.88;;;3.03;;
21527;SDS011;10925;49.102;-0.370;2023-03-24T03:41:32;36.42;;;3.58;;
21527;SDS011;10925;49.102;-0.370;2023-03-24T03:43:58;26.63;;;3.72;;
21527;SDS011;10925;49.102;-0.370;2023-03-24T03:46:26;22.67;;;3.00;;
21527;SDS011;10925;49.102;-0.370;2023-03-24T03:48:52;22.67;;;3.20;;
21527;SDS011;10925;49.102;-0.370;2023-03-24T03:51:17;24.20;;;3.45;;
21527;SDS011;10925;49.102;-0.370;2023-03-24T03:56:10;33.80;;;3.05;;
21527;SDS011;10925;49.102;-0.370;2023-03-24T03:58:48;23.88;;;3.53;;
21527;SDS011;10925;49.102;-0.370;2023-03-24T04:01:16;25.67;;;2.95;;
21527;SDS011;10925;49.102;-0.370;2023-03-24T04:07:22;26.38;;;3.30;;
21527;SDS011;10925;49.102;-0.370;2023-03-24T04:10:09;24.52;;;3.40;;
21527;SDS011;10925;49.102;-0.370;2023-03-24T04:18:05;24.88;;;3.70;;
21527;SDS011;10925;49.102;-0.370;2023-03-24T04:20:36;27.90;;;3.72;;
21527;SDS011;10925;49.102;-0.370;2023-03-24T04:33:47;26.67;;;3.47;;
21527;SDS011;10925;49.102;-0.370;2023-03-24T04:36:19;26.40;;;3.53;;
21527;SDS011;10925;49.102;-0.370;2023-03-24T04:38:47;19.05;;;3.03;;
21527;SDS011;10925;49.102;-0.370;2023-03-24T04:41:15;20.17;;;3.38;;
21527;SDS011;10925;49.102;-0.370;2023-03-24T04:43:55;19.63;;;2.65;;
21527;SDS011;10925;49.102;-0.370;2023-03-24T04:46:23;26.77;;;3.38;;
21527;SDS011;10925;49.102;-0.370;2023-03-24T04:48:55;17.00;;;3.00;;
21527;SDS011;10925;49.102;-0.370;2023-03-24T04:51:21;27.55;;;3.78;;
21527;SDS011;10925;49.102;-0.370;2023-03-24T04:54:11;26.50;;;3.78;;
21527;SDS011;10925;49.102;-0.370;2023-03-24T04:56:50;26.40;;;3.63;;
21527;SDS011;10925;49.102;-0.370;2023-03-24T04:59:27;32.03;;;4.10;;
21527;SDS011;10925;49.102;-0.370;2023-03-24T05:02:19;22.02;;;3.47;;
21527;SDS011;10925;49.102;-0.370;2023-03-24T05:05:02;40.97;;;3.88;;
21527;SDS011;10925;49.102;-0.370;2023-03-24T05:07:33;30.60;;;4.18;;
21527;SDS011;10925;49.102;-0.370;2023-03-24T05:10:04;35.80;;;4.07;;
21527;SDS011;10925;49.102;-0.370;2023-03-24T05:12:38;27.35;;;3.53;;
21527;SDS011;10925;49.102;-0.370;2023-03-24T05:15:03;33.17;;;3.55;;
21527;SDS011;10925;49.102;-0.370;2023-03-24T05:17:31;36.00;;;4.68;;
21527;SDS011;10925;49.102;-0.370;2023-03-24T05:19:58;27.75;;;3.75;;
21527;SDS011;10925;49.102;-0.370;2023-03-24T05:22:28;27.30;;;3.30;;
21527;SDS011;10925;49.102;-0.370;2023-03-24T05:24:58;30.33;;;3.97;;
21527;SDS011;10925;49.102;-0.370;2023-03-24T05:27:24;26.38;;;3.78;;
21527;SDS011;10925;49.102;-0.370;2023-03-24T05:29:50;29.30;;;3.70;;
21527;SDS011;10925;49.102;-0.370;2023-03-24T05:32:21;27.75;;;3.75;;
21527;SDS011;10925;49.102;-0.370;2023-03-24T05:34:48;28.13;;;4.35;;
21527;SDS011;10925;49.102;-0.370;2023-03-24T05:37:21;40.28;;;4.03;;
21527;SDS011;10925;49.102;-0.370;2023-03-24T05:39:50;35.05;;;3.83;;
21527;SDS011;10925;49.102;-0.370;2023-03-24T05:42:40;32.45;;;4.30;;
21527;SDS011;10925;49.102;-0.370;2023-03-24T05:45:06;36.00;;;4.15;;
21527;SDS011;10925;49.102;-0.370;2023-03-24T05:47:33;28.17;;;3.40;;
21527;SDS011;10925;49.102;-0.370;2023-03-24T05:50:00;26.38;;;4.18;;
21527;SDS011;10925;49.102;-0.370;2023-03-24T05:52:28;25.33;;;3.65;;
21527;SDS011;10925;49.102;-0.370;2023-03-24T05:55:06;29.55;;;3.33;;
21527;SDS011;10925;49.102;-0.370;2023-03-24T06:02:24;30.40;;;3.53;;
21527;SDS011;10925;49.102;-0.370;2023-03-24T06:04:59;19.95;;;3.13;;
21527;SDS011;10925;49.102;-0.370;2023-03-24T06:07:27;24.40;;;3.47;;
21527;SDS011;10925;49.102;-0.370;2023-03-24T06:09:55;25.95;;;3.80;;
21527;SDS011;10925;49.102;-0.370;2023-03-24T06:12:22;30.88;;;4.30;;
21527;SDS011;10925;49.102;-0.370;2023-03-24T06:15:01;24.67;;;3.28;;
21527;SDS011;10925;49.102;-0.370;2023-03-24T06:17:29;31.75;;;3.60;;
21527;SDS011;10925;49.102;-0.370;2023-03-24T06:20:03;41.15;;;4.10;;
21527;SDS011;10925;49.102;-0.370;2023-03-24T06:22:29;23.42;;;3.25;;
21527;SDS011;10925;49.102;-0.370;2023-03-24T06:24:57;29.02;;;3.65;;
21527;SDS011;10925;49.102;-0.370;2023-03-24T06:27:27;34.15;;;4.47;;
21527;SDS011;10925;49.102;-0.370;2023-03-24T06:29:57;30.25;;;4.00;;
21527;SDS011;10925;49.102;-0.370;2023-03-24T06:32:24;26.17;;;3.95;;
21527;SDS011;10925;49.102;-0.370;2023-03-24T06:34:52;35.05;;;4.43;;
21527;SDS011;10925;49.102;-0.370;2023-03-24T06:37:30;31.58;;;3.85;;
21527;SDS011;10925;49.102;-0.370;2023-03-24T06:39:59;23.10;;;3.67;;
21527;SDS011;10925;49.102;-0.370;2023-03-24T06:42:29;27.95;;;3.95;;
21527;SDS011;10925;49.102;-0.370;2023-03-24T06:44:56;30.80;;;4.50;;
21527;SDS011;10925;49.102;-0.370;2023-03-24T06:47:23;25.08;;;3.95;;
21527;SDS011;10925;49.102;-0.370;2023-03-24T06:49:50;31.55;;;4.18;;
21527;SDS011;10925;49.102;-0.370;2023-03-24T06:52:17;34.83;;;4.18;;
21527;SDS011;10925;49.102;-0.370;2023-03-24T06:54:43;40.10;;;4.32;;
21527;SDS011;10925;49.102;-0.370;2023-03-24T06:57:09;32.40;;;4.60;;
21527;SDS011;10925;49.102;-0.370;2023-03-24T06:59:35;31.75;;;4.03;;
21527;SDS011;10925;49.102;-0.370;2023-03-24T07:02:00;26.20;;;4.15;;
21527;SDS011;10925;49.102;-0.370;2023-03-24T07:04:30;24.50;;;3.95;;
21527;SDS011;10925;49.102;-0.370;2023-03-24T07:07:01;34.83;;;3.97;;
21527;SDS011;10925;49.102;-0.370;2023-03-24T07:10:05;29.50;;;3.95;;
21527;SDS011;10925;49.102;-0.370;2023-03-24T07:12:33;35.28;;;4.20;;
21527;SDS011;10925;49.102;-0.370;2023-03-24T07:14:59;32.25;;;4.45;;
21527;SDS011;10925;49.102;-0.370;2023-03-24T07:17:26;28.88;;;5.20;;
21527;SDS011;10925;49.102;-0.370;2023-03-24T07:20:15;31.70;;;4.55;;
21527;SDS011;10925;49.102;-0.370;2023-03-24T07:22:40;28.98;;;3.90;;
21527;SDS011;10925;49.102;-0.370;2023-03-24T07:25:26;24.58;;;4.07;;
21527;SDS011;10925;49.102;-0.370;2023-03-24T07:28:00;26.52;;;5.10;;
21527;SDS011;10925;49.102;-0.370;2023-03-24T07:30:27;31.35;;;3.53;;
21527;SDS011;10925;49.102;-0.370;2023-03-24T07:32:54;24.67;;;4.45;;
21527;SDS011;10925;49.102;-0.370;2023-03-24T07:35:21;23.25;;;3.95;;
21527;SDS011;10925;49.102;-0.370;2023-03-24T07:37:48;28.27;;;4.05;;
21527;SDS011;10925;49.102;-0.370;2023-03-24T07:40:15;24.83;;;3.75;;
21527;SDS011;10925;49.102;-0.370;2023-03-24T07:42:43;21.98;;;3.92;;
21527;SDS011;10925;49.102;-0.370;2023-03-24T07:45:29;21.20;;;3.70;;
21527;SDS011;10925;49.102;-0.370;2023-03-24T07:47:57;31.38;;;4.07;;
21527;SDS011;10925;49.102;-0.370;2023-03-24T07:50:28;25.23;;;3.58;;
21527;SDS011;10925;49.102;-0.370;2023-03-24T07:52:54;26.00;;;4.20;;
21527;SDS011;10925;49.102;-0.370;2023-03-24T07:55:20;27.77;;;3.95;;
21527;SDS011;10925;49.102;-0.370;2023-03-24T07:57:54;29.45;;;3.65;;
21527;SDS011;10925;49.102;-0.370;2023-03-24T08:00:23;21.83;;;3.50;;
21527;SDS011;10925;49.102;-0.370;2023-03-24T08:03:01;30.10;;;4.05;;
21527;SDS011;10925;49.102;-0.370;2023-03-24T08:05:44;20.05;;;3.67;;
21527;SDS011;10925;49.102;-0.370;2023-03-24T08:08:12;28.92;;;4.47;;
21527;SDS011;10925;49.102;-0.370;2023-03-24T08:10:38;18.73;;;2.85;;
21527;SDS011;10925;49.102;-0.370;2023-03-24T08:13:04;24.95;;;2.95;;
21527;SDS011;10925;49.102;-0.370;2023-03-24T08:15:31;23.08;;;3.33;;
21527;SDS011;10925;49.102;-0.370;2023-03-24T08:17:58;22.70;;;3.95;;
21527;SDS011;10925;49.102;-0.370;2023-03-24T08:20:25;18.15;;;3.20;;
21527;SDS011;10925;49.102;-0.370;2023-03-24T08:22:52;23.75;;;3.63;;
21527;SDS011;10925;49.102;-0.370;2023-03-24T08:25:21;22.45;;;3.53;;
21527;SDS011;10925;49.102;-0.370;2023-03-24T08:27:49;23.10;;;3.42;;
21527;SDS011;10925;49.102;-0.370;2023-03-24T08:30:18;18.20;;;2.70;;
21527;SDS011;10925;49.102;-0.370;2023-03-24T08:32:46;18.63;;;3.90;;
21527;SDS011;10925;49.102;-0.370;2023-03-24T08:35:15;21.45;;;3.33;;
21527;SDS011;10925;49.102;-0.370;2023-03-24T08:37:41;22.92;;;3.15;;
21527;SDS011;10925;49.102;-0.370;2023-03-24T08:40:09;24.45;;;3.45;;
21527;SDS011;10925;49.102;-0.370;2023-03-24T08:42:41;17.15;;;3.03;;
21527;SDS011;10925;49.102;-0.370;2023-03-24T08:45:09;20.80;;;3.40;;
21527;SDS011;10925;49.102;-0.370;2023-03-24T08:47:35;20.88;;;2.80;;
21527;SDS011;10925;49.102;-0.370;2023-03-24T08:50:01;19.98;;;3.65;;
21527;SDS011;10925;49.102;-0.370;2023-03-24T08:52:28;16.17;;;2.55;;
21527;SDS011;10925;49.102;-0.370;2023-03-24T08:54:53;23.63;;;3.85;;
21527;SDS011;10925;49.102;-0.370;2023-03-24T08:57:20;22.27;;;2.65;;
21527;SDS011;10925;49.102;-0.370;2023-03-24T08:59:47;15.73;;;3.03;;
21527;SDS011;10925;49.102;-0.370;2023-03-24T09:02:12;14.52;;;3.83;;
21527;SDS011;10925;49.102;-0.370;2023-03-24T09:04:38;16.48;;;2.72;;
21527;SDS011;10925;49.102;-0.370;2023-03-24T09:07:05;18.33;;;2.80;;
21527;SDS011;10925;49.102;-0.370;2023-03-24T09:09:32;22.33;;;3.22;;
21527;SDS011;10925;49.102;-0.370;2023-03-24T09:11:58;20.35;;;2.88;;
21527;SDS011;10925;49.102;-0.370;2023-03-24T09:14:25;15.27;;;3.20;;
21527;SDS011;10925;49.102;-0.370;2023-03-24T09:16:51;17.13;;;2.80;;
21527;SDS011;10925;49.102;-0.370;2023-03-24T09:19:18;14.60;;;3.35;;
21527;SDS011;10925;49.102;-0.370;2023-03-24T09:21:45;13.27;;;3.38;;
21527;SDS011;10925;49.102;-0.370;2023-03-24T09:24:13;23.70;;;2.97;;
21527;SDS011;10925;49.102;-0.370;2023-03-24T09:26:39;17.25;;;2.50;;
21527;SDS011;10925;49.102;-0.370;2023-03-24T09:29:06;11.95;;;2.65;;
21527;SDS011;10925;49.102;-0.370;2023-03-24T09:31:32;17.05;;;2.75;;
21527;SDS011;10925;49.102;-0.370;2023-03-24T09:33:59;20.65;;;3.00;;
21527;SDS011;10925;49.102;-0.370;2023-03-24T09:36:29;14.32;;;2.92;;
21527;SDS011;10925;49.102;-0.370;2023-03-24T09:38:56;20.65;;;3.38;;
21527;SDS011;10925;49.102;-0.370;2023-03-24T09:41:25;17.98;;;2.83;;
21527;SDS011;10925;49.102;-0.370;2023-03-24T09:47:15;17.85;;;2.80;;
21527;SDS011;10925;49.102;-0.370;2023-03-24T09:49:22;18.08;;;2.63;;
21527;SDS011;10925;49.102;-0.370;2023-03-24T09:51:51;14.50;;;2.72;;
21527;SDS011;10925;49.102;-0.370;2023-03-24T09:54:27;6.47;;;1.23;;
21527;SDS011;10925;49.102;-0.370;2023-03-24T09:56:55;18.58;;;2.92;;
21527;SDS011;10925;49.102;-0.370;2023-03-24T09:59:28;15.63;;;2.40;;
21527;SDS011;10925;49.102;-0.370;2023-03-24T10:02:00;10.85;;;1.88;;
21527;SDS011;10925;49.102;-0.370;2023-03-24T10:04:26;10.00;;;2.45;;
21527;SDS011;10925;49.102;-0.370;2023-03-24T10:06:56;14.00;;;2.20;;
21527;SDS011;10925;49.102;-0.370;2023-03-24T10:09:34;12.82;;;2.40;;
21527;SDS011;10925;49.102;-0.370;2023-03-24T10:25:19;10.38;;;2.20;;
21527;SDS011;10925;49.102;-0.370;2023-03-24T10:30:20;14.15;;;2.40;;
21527;SDS011;10925;49.102;-0.370;2023-03-24T10:32:48;14.15;;;2.22;;
21527;SDS011;10925;49.102;-0.370;2023-03-24T10:35:17;14.50;;;2.40;;
21527;SDS011;10925;49.102;-0.370;2023-03-24T10:37:45;11.27;;;2.88;;
21527;SDS011;10925;49.102;-0.370;2023-03-24T10:40:16;14.77;;;2.05;;
21527;SDS011;10925;49.102;-0.370;2023-03-24T10:42:43;12.60;;;2.17;;
21527;SDS011;10925;49.102;-0.370;2023-03-24T10:45:28;12.57;;;2.33;;
21527;SDS011;10925;49.102;-0.370;2023-03-24T10:47:56;11.30;;;2.00;;
21527;SDS011;10925;49.102;-0.370;2023-03-24T10:50:23;11.18;;;2.17;;
21527;SDS011;10925;49.102;-0.370;2023-03-24T10:52:51;14.73;;;2.75;;
21527;SDS011;10925;49.102;-0.370;2023-03-24T10:55:18;11.70;;;2.25;;
21527;SDS011;10925;49.102;-0.370;2023-03-24T10:57:47;9.57;;;2.05;;
21527;SDS011;10925;49.102;-0.370;2023-03-24T11:00:24;21.02;;;2.75;;
21527;SDS011;10925;49.102;-0.370;2023-03-24T11:02:58;18.77;;;2.20;;
21527;SDS011;10925;49.102;-0.370;2023-03-24T11:05:29;13.77;;;2.70;;
21527;SDS011;10925;49.102;-0.370;2023-03-24T11:10:43;12.07;;;2.20;;
21527;SDS011;10925;49.102;-0.370;2023-03-24T11:15:54;13.48;;;2.03;;
21527;SDS011;10925;49.102;-0.370;2023-03-24T11:18:21;11.00;;;2.03;;
21527;SDS011;10925;49.102;-0.370;2023-03-24T11:20:52;17.42;;;2.63;;
21527;SDS011;10925;49.102;-0.370;2023-03-24T11:25:49;13.57;;;2.47;;
21527;SDS011;10925;49.102;-0.370;2023-03-24T11:28:20;17.17;;;2.25;;
21527;SDS011;10925;49.102;-0.370;2023-03-24T11:30:49;11.90;;;2.20;;
21527;SDS011;10925;49.102;-0.370;2023-03-24T11:33:20;11.63;;;2.28;;
21527;SDS011;10925;49.102;-0.370;2023-03-24T11:39:00;10.63;;;2.28;;
21527;SDS011;10925;49.102;-0.370;2023-03-24T11:41:26;10.07;;;2.30;;
21527;SDS011;10925;49.102;-0.370;2023-03-24T11:44:06;5.65;;;1.67;;
21527;SDS011;10925;49.102;-0.370;2023-03-24T11:46:38;10.00;;;1.88;;
21527;SDS011;10925;49.102;-0.370;2023-03-24T11:49:06;10.70;;;1.88;;
21527;SDS011;10925;49.102;-0.370;2023-03-24T11:51:35;10.35;;;2.17;;
21527;SDS011;10925;49.102;-0.370;2023-03-24T11:54:03;5.85;;;1.42;;
21527;SDS011;10925;49.102;-0.370;2023-03-24T11:59:06;13.00;;;2.00;;
21527;SDS011;10925;49.102;-0.370;2023-03-24T12:01:38;12.95;;;2.22;;
21527;SDS011;10925;49.102;-0.370;2023-03-24T12:12:23;10.00;;;2.55;;
21527;SDS011;10925;49.102;-0.370;2023-03-24T12:17:23;11.13;;;1.85;;
21527;SDS011;10925;49.102;-0.370;2023-03-24T12:35:30;14.38;;;2.15;;
21527;SDS011;10925;49.102;-0.370;2023-03-24T12:45:41;13.70;;;2.88;;
21527;SDS011;10925;49.102;-0.370;2023-03-24T12:55:58;6.60;;;1.38;;
21527;SDS011;10925;49.102;-0.370;2023-03-24T13:03:53;7.18;;;1.50;;
21527;SDS011;10925;49.102;-0.370;2023-03-24T13:06:24;8.32;;;1.42;;
21527;SDS011;10925;49.102;-0.370;2023-03-24T13:14:26;7.65;;;1.30;;
21527;SDS011;10925;49.102;-0.370;2023-03-24T13:16:55;8.73;;;1.45;;
21527;SDS011;10925;49.102;-0.370;2023-03-24T13:19:25;10.68;;;1.60;;
21527;SDS011;10925;49.102;-0.370;2023-03-24T13:21:52;9.43;;;1.30;;
21527;SDS011;10925;49.102;-0.370;2023-03-24T13:24:18;5.00;;;1.30;;
21527;SDS011;10925;49.102;-0.370;2023-03-24T13:26:54;6.22;;;1.65;;
21527;SDS011;10925;49.102;-0.370;2023-03-24T13:32:16;4.80;;;1.13;;
21527;SDS011;10925;49.102;-0.370;2023-03-24T13:37:39;6.47;;;1.77;;
21527;SDS011;10925;49.102;-0.370;2023-03-24T13:40:17;5.65;;;1.23;;
21527;SDS011;10925;49.102;-0.370;2023-03-24T13:42:46;9.07;;;1.52;;
21527;SDS011;10925;49.102;-0.370;2023-03-24T13:50:31;9.35;;;2.08;;
21527;SDS011;10925;49.102;-0.370;2023-03-24T13:52:59;7.53;;;1.20;;
21527;SDS011;10925;49.102;-0.370;2023-03-24T13:55:30;12.35;;;1.58;;
21527;SDS011;10925;49.102;-0.370;2023-03-24T13:58:05;7.03;;;1.33;;
21527;SDS011;10925;49.102;-0.370;2023-03-24T14:01:11;5.97;;;1.70;;
21527;SDS011;10925;49.102;-0.370;2023-03-24T14:03:46;6.50;;;1.25;;
21527;SDS011;10925;49.102;-0.370;2023-03-24T14:06:17;8.10;;;2.03;;
21527;SDS011;10925;49.102;-0.370;2023-03-24T14:09:04;4.45;;;1.10;;
21527;SDS011;10925;49.102;-0.370;2023-03-24T14:14:15;10.15;;;1.40;;
21527;SDS011;10925;49.102;-0.370;2023-03-24T14:19:29;12.65;;;1.75;;
21527;SDS011;10925;49.102;-0.370;2023-03-24T14:24:40;4.70;;;1.10;;
21527;SDS011;10925;49.102;-0.370;2023-03-24T14:27:20;5.60;;;1.30;;
21527;SDS011;10925;49.102;-0.370;2023-03-24T14:29:52;6.07;;;1.50;;
21527;SDS011;10925;49.102;-0.370;2023-03-24T14:32:19;11.70;;;1.80;;
21527;SDS011;10925;49.102;-0.370;2023-03-24T14:34:52;4.72;;;1.38;;
21527;SDS011;10925;49.102;-0.370;2023-03-24T14:37:20;8.13;;;1.60;;
21527;SDS011;10925;49.102;-0.370;2023-03-24T14:39:48;7.20;;;1.23;;
21527;SDS011;10925;49.102;-0.370;2023-03-24T14:44:58;6.88;;;1.65;;
21527;SDS011;10925;49.102;-0.370;2023-03-24T14:47:29;4.10;;;1.00;;
21527;SDS011;10925;49.102;-0.370;2023-03-24T14:49:58;8.27;;;1.70;;
21527;SDS011;10925;49.102;-0.370;2023-03-24T14:52:26;8.70;;;1.67;;
21527;SDS011;10925;49.102;-0.370;2023-03-24T14:55:03;7.43;;;1.80;;
21527;SDS011;10925;49.102;-0.370;2023-03-24T14:57:43;8.32;;;1.55;;
21527;SDS011;10925;49.102;-0.370;2023-03-24T15:03:17;8.45;;;1.70;;
21527;SDS011;10925;49.102;-0.370;2023-03-24T15:05:43;8.00;;;1.13;;
21527;SDS011;10925;49.102;-0.370;2023-03-24T15:08:11;7.32;;;1.67;;
21527;SDS011;10925;49.102;-0.370;2023-03-24T15:10:40;7.25;;;1.40;;
21527;SDS011;10925;49.102;-0.370;2023-03-24T15:15:49;7.57;;;1.65;;
21527;SDS011;10925;49.102;-0.370;2023-03-24T15:18:16;9.07;;;1.83;;
21527;SDS011;10925;49.102;-0.370;2023-03-24T15:20:44;5.55;;;1.33;;
21527;SDS011;10925;49.102;-0.370;2023-03-24T15:23:18;8.45;;;1.35;;
21527;SDS011;10925;49.102;-0.370;2023-03-24T15:28:43;13.65;;;1.58;;
21527;SDS011;10925;49.102;-0.370;2023-03-24T15:31:13;8.75;;;1.77;;
21527;SDS011;10925;49.102;-0.370;2023-03-24T15:33:42;9.32;;;1.38;;
21527;SDS011;10925;49.102;-0.370;2023-03-24T15:36:32;7.60;;;1.48;;
21527;SDS011;10925;49.102;-0.370;2023-03-24T15:38:55;5.35;;;1.60;;
21527;SDS011;10925;49.102;-0.370;2023-03-24T15:41:21;8.32;;;1.65;;
21527;SDS011;10925;49.102;-0.370;2023-03-24T15:43:49;8.63;;;2.00;;
21527;SDS011;10925;49.102;-0.370;2023-03-24T15:46:24;6.70;;;1.52;;
21527;SDS011;10925;49.102;-0.370;2023-03-24T15:48:51;10.95;;;1.60;;
21527;SDS011;10925;49.102;-0.370;2023-03-24T15:51:18;11.75;;;1.45;;
21527;SDS011;10925;49.102;-0.370;2023-03-24T15:53:44;8.77;;;1.45;;
21527;SDS011;10925;49.102;-0.370;2023-03-24T15:56:19;7.85;;;1.30;;
21527;SDS011;10925;49.102;-0.370;2023-03-24T15:58:46;7.00;;;1.17;;
21527;SDS011;10925;49.102;-0.370;2023-03-24T16:01:14;6.30;;;1.50;;
21527;SDS011;10925;49.102;-0.370;2023-03-24T16:03:43;7.25;;;1.27;;
21527;SDS011;10925;49.102;-0.370;2023-03-24T16:06:12;6.63;;;1.20;;
21527;SDS011;10925;49.102;-0.370;2023-03-24T16:08:41;7.00;;;1.70;;
21527;SDS011;10925;49.102;-0.370;2023-03-24T16:11:09;8.95;;;1.52;;
21527;SDS011;10925;49.102;-0.370;2023-03-24T16:13:41;6.22;;;1.40;;
21527;SDS011;10925;49.102;-0.370;2023-03-24T16:18:42;6.63;;;1.30;;
21527;SDS011;10925;49.102;-0.370;2023-03-24T16:21:12;7.03;;;1.23;;
21527;SDS011;10925;49.102;-0.370;2023-03-24T16:23:40;8.48;;;1.50;;
21527;SDS011;10925;49.102;-0.370;2023-03-24T16:26:12;4.65;;;1.30;;
21527;SDS011;10925;49.102;-0.370;2023-03-24T16:28:39;5.78;;;1.38;;
21527;SDS011;10925;49.102;-0.370;2023-03-24T16:31:06;6.32;;;1.58;;
21527;SDS011;10925;49.102;-0.370;2023-03-24T16:33:32;9.15;;;1.42;;
21527;SDS011;10925;49.102;-0.370;2023-03-24T16:36:01;7.97;;;1.33;;
21527;SDS011;10925;49.102;-0.370;2023-03-24T16:38:26;5.28;;;1.30;;
21527;SDS011;10925;49.102;-0.370;2023-03-24T16:45:50;4.18;;;1.58;;
21527;SDS011;10925;49.102;-0.370;2023-03-24T16:48:17;6.97;;;1.55;;
21527;SDS011;10925;49.102;-0.370;2023-03-24T16:50:45;4.13;;;1.10;;
21527;SDS011;10925;49.102;-0.370;2023-03-24T16:53:12;9.05;;;1.40;;
21527;SDS011;10925;49.102;-0.370;2023-03-24T16:55:39;5.57;;;1.30;;
21527;SDS011;10925;49.102;-0.370;2023-03-24T16:58:07;3.97;;;1.20;;
21527;SDS011;10925;49.102;-0.370;2023-03-24T17:00:34;7.40;;;2.13;;
21527;SDS011;10925;49.102;-0.370;2023-03-24T17:03:02;8.95;;;1.35;;
21527;SDS011;10925;49.102;-0.370;2023-03-24T17:05:30;3.63;;;1.52;;
21527;SDS011;10925;49.102;-0.370;2023-03-24T17:07:58;7.85;;;1.95;;
21527;SDS011;10925;49.102;-0.370;2023-03-24T17:10:24;4.43;;;1.30;;
21527;SDS011;10925;49.102;-0.370;2023-03-24T17:12:51;4.38;;;1.10;;
21527;SDS011;10925;49.102;-0.370;2023-03-24T17:15:19;9.23;;;1.70;;
21527;SDS011;10925;49.102;-0.370;2023-03-24T17:17:48;10.90;;;1.75;;
21527;SDS011;10925;49.102;-0.370;2023-03-24T17:20:15;3.40;;;1.33;;
21527;SDS011;10925;49.102;-0.370;2023-03-24T17:22:42;5.05;;;1.40;;
21527;SDS011;10925;49.102;-0.370;2023-03-24T17:25:10;4.45;;;1.35;;
21527;SDS011;10925;49.102;-0.370;2023-03-24T17:27:36;7.65;;;1.58;;
21527;SDS011;10925;49.102;-0.370;2023-03-24T17:30:01;5.38;;;1.48;;
21527;SDS011;10925;49.102;-0.370;2023-03-24T17:32:27;5.18;;;1.30;;
21527;SDS011;10925;49.102;-0.370;2023-03-24T17:34:53;9.63;;;1.83;;
21527;SDS011;10925;49.102;-0.370;2023-03-24T17:37:20;7.00;;;1.48;;
21527;SDS011;10925;49.102;-0.370;2023-03-24T17:39:49;7.25;;;2.25;;
21527;SDS011;10925;49.102;-0.370;2023-03-24T17:42:14;7.20;;;1.52;;
21527;SDS011;10925;49.102;-0.370;2023-03-24T17:44:40;7.60;;;1.40;;
21527;SDS011;10925;49.102;-0.370;2023-03-24T17:47:05;7.93;;;1.50;;